Tiempo atmosférico en la estación meteorológica de Baztan, Irurita, Navarra (183 m.)



Fecha
DESCASC
Temp. máxima en grados centígrados (hora)
DESCASC
Temp. mínima en grados centígrados (hora)
DESCASC
Temp. media en grados centígrados
DESCASC
Racha de viento máxima en m/sg (hora)
DESCASC
Velocidad máxima media en intervalos de 10 minutos(hora)
DESCASC
Precipitaciones diarias en mm
DESCASC
Precipitaciones de 00:00 a 06:00 en mm
DESCASC
Precipitaciones de 06:00 a 12:00 en mm
DESCASC
Precipitaciones de 12:00 a 18:00 en mm
DESCASC
Precipitaciones de 18:00 a 24:00 en mm
DESCASC
24-09-2020 24.6 (16:20) 13.7 (23:59) 19.2 9.17 (15:40) 3.89 (16:40) 7.3 0.5 0 0 6.8
23-09-2020 26.4 (14:20) 14.2 (00:00) 20.3 6.11 (14:30) 1.94 (14:40) 2 0 0 0.2 1.8
22-09-2020 24.6 (14:50) 15 (00:00) 19.8 5 (15:00) 2.22 (15:10) 0 0 0 0 0
21-09-2020 21.5 (16:00) 15.5 (00:00) 18.5 5.28 (15:00) 2.5 (17:00) 8.2 0 6.2 0 2
20-09-2020 25.7 (15:20) 13.7 (00:00) 19.7 4.44 (16:10) 1.39 (16:20) 0.1 0.1 0 0 0
19-09-2020 23.9 (16:00) 15.8 (00:00) 19.8 11.67 (10:00) 4.17 (16:20) 12.6 0 0 3.1 9.5
18-09-2020 28.5 (16:20) 17.8 (00:00) 23.1 9.72 (06:00) 2.78 (15:30) 1.1 0 1.1 0 0
17-09-2020 28.9 (15:00) 13.6 (00:00) 21.3 2.5 (17:50) 0.83 (14:00) 0 0 0 0 0
16-09-2020 31.7 (15:00) 13.4 (00:00) 22.6 5.83 (16:00) 2.78 (16:30) 0 0 0 0 0
15-09-2020 30.9 (14:30) 16.7 (00:00) 23.8 5 (18:20) 2.22 (18:20) 0.2 0.2 0 0 0
14-09-2020 34.6 (15:50) 14.8 (00:00) 24.7 9.44 (14:10) 3.33 (14:10) 0 0 0 0 0
13-09-2020 33.9 (15:50) 12.7 (00:00) 23.3 5.83 (14:40) 1.39 (16:20) 0 0 0 0 0
12-09-2020 28.3 (15:30) 13.1 (00:00) 20.7 6.67 (15:40) 2.5 (15:40) 0 0 0 0 0
11-09-2020 27.3 (16:30) 11.8 (00:00) 19.5 6.11 (17:10) 2.78 (15:20) 0 0 0 0 0
10-09-2020 26.4 (15:40) 9.5 (00:00) 17.9 5.83 (17:10) 2.78 (17:50) 0 0 0 0 0
09-09-2020 27.9 (15:20) 8.1 (00:00) 18 8.33 (15:00) 3.33 (14:30) 0 0 0 0 0
08-09-2020 25.1 (16:10) 8.3 (00:00) 16.7 6.11 (14:20) 2.78 (13:00) 0.2 0 0.2 0 0
07-09-2020 21.5 (15:50) 11.2 (08:20) 16.3 8.89 (17:00) 5 (17:00) 0 0 0 0 0
06-09-2020 21.9 (14:10) 14.7 (00:00) 18.3 6.67 (18:40) 3.61 (18:40) 0.2 0.2 0 0 0
05-09-2020 21.1 (16:20) 12.5 (00:00) 16.8 3.89 (17:20) 2.22 (16:40) 0 0 0 0 0
04-09-2020 33.3 (16:40) 9.7 (00:00) 21.5 3.89 (12:30) 1.94 (12:40) 0 0 0 0 0
03-09-2020 28.9 (16:10) 8.3 (00:00) 18.6 4.72 (17:30) 1.94 (17:30) 0 0 0 0 0
02-09-2020 24.2 (15:30) 11.1 (00:00) 17.7 7.5 (17:20) 4.17 (18:20) 0 0 0 0 0
01-09-2020 25.2 (14:30) 10.5 (00:00) 17.9 6.67 (18:30) 3.61 (18:40) 0 0 0 0 0
31-08-2020 -- (--) -- (--) -- -- (--) -- (--) 0 0 0 0 0
30-08-2020 -- (--) -- (--) -- -- (--) -- (--) -- -- 6.4 0.1 0
29-08-2020 -- (--) -- (--) -- 8.89 (23:59) 3.06 (23:59) 31.4 0.8 0.8 3.9 25.9
28-08-2020 20.1 (00:00) 14.8 (00:00) 17.5 2.78 (09:00) 1.39 (20:50) 6.9 0 1.8 2.1 3

Gráficas

Temp. máximas Temp. mínimas Temp. medias Precipitaciones Rachas de viento máximas Velocidades máximas media en intervalos de 10 minutos

Datos horarios

Fecha y hora oficial Temperatura (ºC) Velocidad del viento (km/h) Dirección del viento Racha (km/h) Dirección de racha Precipitación (mm) Presión (hPa) Tendencia (hPa) Humedad (%)
2020-09-26 23:00:00 13.6 12 Norte 26 Norte 2.4 -- -- 86
2020-09-26 22:00:00 15.1 13 Norte 35 Norte 8 -- -- 87
2020-09-26 21:00:00 13.8 0 Calma 6 Este 2.9 -- -- 97
2020-09-26 20:00:00 13.8 0 Calma 8 Norte 1.2 -- -- 95
2020-09-26 19:00:00 14.2 0 Calma 14 Sur 0.2 -- -- 89
2020-09-26 18:00:00 14.4 2 Sudoeste 12 Sudoeste 0 -- -- 86
2020-09-26 17:00:00 14.4 0 Calma 14 Sudoeste 0 -- -- 88
2020-09-26 16:00:00 14.2 0 Calma 5 Noroeste 0.5 -- -- 93
2020-09-26 15:00:00 13.9 2 Norte 8 Noroeste 0.4 -- -- 93
2020-09-26 14:00:00 14 2 Sudoeste 11 Sudoeste 0.7 -- -- 91
2020-09-26 13:00:00 13.6 0 Calma 6 Sudoeste 0.6 -- -- 92
2020-09-26 12:00:00 13.1 2 Sudeste 10 Sudoeste 1.1 -- -- 95
2020-09-26 11:00:00 12.5 3 Sudoeste 8 Sudoeste 0.6 -- -- 95
2020-09-26 10:00:00 11.4 0 Calma 4 Nordeste 2.8 -- -- 97
2020-09-26 09:00:00 11 0 Calma 9 Sudoeste 2.4 -- -- 97
2020-09-26 08:00:00 10.7 0 Calma 11 Sur 3.5 -- -- 97
2020-09-26 07:00:00 10.5 2 Sur 8 Sur 3 -- -- 97
2020-09-26 06:00:00 10.4 0 Calma 9 Sudoeste 3.1 -- -- 97
2020-09-26 05:00:00 10.3 2 Noroeste 13 Noroeste 2.7 -- -- 97
2020-09-26 04:00:00 10.3 2 Sudoeste 10 Sur 0.6 -- -- 97
2020-09-26 03:00:00 10.1 4 Sudoeste 8 Sudoeste 4.5 -- -- 97
2020-09-26 02:00:00 10.2 0 Calma 9 Sudoeste 1.2 -- -- 97
2020-09-26 01:00:00 10.2 0 Calma 13 Sudoeste 1 -- -- 96
2020-09-26 00:00:00 10.2 3 Sur 13 Noroeste 2.1 -- -- 96
2020-09-25 23:00:00 10.4 3 Sudoeste 14 Sur 2.1 -- -- 95
2020-09-25 22:00:00 10.5 0 Calma 11 Nordeste 3.9 -- -- 96
2020-09-25 21:00:00 10.6 2 Sudoeste 13 Sudoeste 2.6 -- -- 94
2020-09-25 20:00:00 10.7 3 Sudoeste 19 Nordeste 2 -- -- 91
2020-09-25 19:00:00 11.3 6 Sudoeste 27 Noroeste 1.3 -- -- 79
2020-09-25 18:00:00 12.9 6 Noroeste 29 Noroeste 1 -- -- 68
2020-09-25 17:00:00 12.9 3 Sudoeste 29 Noroeste 0.2 -- -- 70
2020-09-25 16:00:00 13.6 3 Oeste 21 Sudoeste 1 -- -- 70
2020-09-25 15:00:00 12.5 6 Noroeste 45 Noroeste 2 -- -- 78
2020-09-25 14:00:00 13.1 4 Sudoeste 37 Noroeste 3 -- -- 82
2020-09-25 13:00:00 11.2 4 Noroeste 35 Norte 6.7 -- -- 86
2020-09-25 12:00:00 10.7 10 Sudoeste 28 Sudoeste 2.7 -- -- 86
2020-09-25 11:00:00 10.8 0 Calma 13 Sur 4.3 -- -- 89
2020-09-25 10:00:00 10.3 2 Sur 11 Sur 1.9 -- -- 96
2020-09-25 09:00:00 9.7 0 Calma 10 Sudeste 4.2 -- -- 96
2020-09-25 08:00:00 9.5 0 Calma 14 Sudoeste 2.1 -- -- 92
2020-09-25 07:00:00 9.9 4 Noroeste 15 Sudoeste 0.5 -- -- 90
2020-09-25 06:00:00 10.1 0 Calma 15 Oeste 2.9 -- -- 91
2020-09-25 05:00:00 10.6 4 Noroeste 15 Sur 1 -- -- 94
2020-09-25 04:00:00 11.2 0 Calma 13 Sur 0.6 -- -- 95
2020-09-25 03:00:00 11.5 0 Calma 12 Sur 1.2 -- -- 91
2020-09-25 02:00:00 12.2 2 Sur 16 Noroeste 0.9 -- -- 88
2020-09-25 01:00:00 13.3 3 Noroeste 18 Noroeste 0.5 -- -- 88
2020-09-25 00:00:00 13.8 5 Noroeste 18 Noroeste 3.1 -- -- 92
2020-09-24 23:00:00 14.3 4 Sudoeste 12 Noroeste 3.1 -- -- 90
2020-09-24 22:00:00 15.4 2 Noroeste 10 Sudoeste 0.6 -- -- 89
2020-09-24 21:00:00 16.6 2 Oeste 10 Noroeste 0 -- -- 75
2020-09-24 20:00:00 17.6 4 Sur 12 Noroeste 0 -- -- 68
2020-09-24 19:00:00 18.6 0 Calma 13 Nordeste 0 -- -- 65
2020-09-24 18:00:00 19.1 2 Nordeste 18 Sudoeste 0 -- -- 63
2020-09-24 17:00:00 20.6 6 Nordeste 27 Sudoeste 0 -- -- 60
2020-09-24 16:00:00 23.4 4 Sudoeste 33 Sur 0 -- -- 37
2020-09-24 15:00:00 22.6 9 Sudoeste 27 Sur 0 -- -- 41
2020-09-24 14:00:00 21.7 8 Sudoeste 27 Sur 0 -- -- 48
2020-09-24 13:00:00 20.6 0 Calma 6 Noroeste 0 -- -- 66
2020-09-24 12:00:00 19.8 0 Calma 6 Noroeste 0 -- -- 77
2020-09-24 11:00:00 17.8 0 Calma 5 Sudeste 0 -- -- 86
2020-09-24 10:00:00 16.8 0 Calma 3 Sudoeste 0 -- -- 94
2020-09-24 09:00:00 16.6 0 Calma -- -- 0 -- -- 96
2020-09-24 08:00:00 16.1 0 Calma -- -- 0 -- -- 96
2020-09-24 07:00:00 16.1 0 Calma -- -- 0 -- -- 96
2020-09-24 06:00:00 16.3 0 Calma -- -- 0 -- -- 96
2020-09-24 05:00:00 16.1 0 Calma -- -- 0 -- -- 96
2020-09-24 04:00:00 16.2 0 Calma -- -- 0 -- -- 95
2020-09-24 03:00:00 16.6 0 Calma -- -- 0 -- -- 96
2020-09-24 02:00:00 16.8 0 Calma -- -- 0.4 -- -- 95
2020-09-24 01:00:00 17 0 Calma 4 Sur 0.1 -- -- 95
2020-09-24 00:00:00 17 0 Calma 3 Sudoeste 0 -- -- 95
2020-09-23 23:00:00 17.4 0 Calma 3 Sudeste 0.3 -- -- 95
2020-09-23 22:00:00 17.8 0 Calma 6 Noroeste 0.4 -- -- 95
2020-09-23 21:00:00 18.2 0 Calma 5 Sudoeste 1.1 -- -- 93
2020-09-23 20:00:00 18.8 0 Calma 10 Norte 0 -- -- 87
2020-09-23 19:00:00 19.5 0 Calma 5 Nordeste 0 -- -- 85
2020-09-23 18:00:00 19.9 0 Calma 9 Sur 0.1 -- -- 80
2020-09-23 17:00:00 21 4 Sudeste 12 Sur 0.1 -- -- 71
2020-09-23 16:00:00 21.9 3 Norte 18 Sudoeste 0 -- -- 64
2020-09-23 15:00:00 24.6 0 Calma 22 Oeste 0 -- -- 45
2020-09-23 14:00:00 24.6 4 Oeste 15 Noroeste 0 -- -- 45
2020-09-23 13:00:00 23.2 3 Noroeste 21 Norte 0 -- -- 49
2020-09-23 12:00:00 24.1 3 Norte 12 Noroeste 0 -- -- 48
2020-09-23 11:00:00 18.3 0 Calma 6 Nordeste 0 -- -- 78
2020-09-23 10:00:00 15 0 Calma 5 Nordeste 0 -- -- 95
2020-09-23 09:00:00 14.9 0 Calma 5 Sudeste 0 -- -- 97
2020-09-23 08:00:00 14.6 0 Calma 4 Sudeste 0 -- -- 97
2020-09-23 07:00:00 14.5 0 Calma 4 Sudoeste 0 -- -- 96
2020-09-23 06:00:00 14.3 0 Calma 4 Sudoeste 0 -- -- 95
2020-09-23 05:00:00 14.4 0 Calma 5 Sudoeste 0 -- -- 96
2020-09-23 04:00:00 14.7 0 Calma 0 Calma 0 -- -- 96
2020-09-23 03:00:00 14.6 0 Calma 3 Noroeste 0 -- -- 96
2020-09-23 02:00:00 14.9 0 Calma 3 Nordeste 0 -- -- 96
2020-09-23 01:00:00 14.8 0 Calma 3 Noroeste 0 -- -- 95
2020-09-23 00:00:00 15 0 Calma 4 Sudoeste 0 -- -- 93
2020-09-22 23:00:00 16 0 Calma 3 Sur 0 -- -- 93
2020-09-22 22:00:00 16.4 0 Calma 4 Noroeste 0 -- -- 92
2020-09-22 21:00:00 17.8 0 Calma 2 Noroeste 0 -- -- 87
2020-09-22 20:00:00 19.7 0 Calma 8 Sur 0 -- -- 78
2020-09-22 19:00:00 21 0 Calma 11 Nordeste 0 -- -- 71
2020-09-22 18:00:00 22.4 7 Nordeste 13 Nordeste 0 -- -- 57
2020-09-22 17:00:00 22.9 5 Norte 13 Norte 0 -- -- 54
2020-09-22 16:00:00 23.9 3 Este 12 Este 0 -- -- 54
2020-09-22 15:00:00 24.1 7 Nordeste 18 Nordeste 0 -- -- 50
2020-09-22 14:00:00 23.6 3 Noroeste 10 Sudoeste 0 -- -- 51
2020-09-22 13:00:00 22 4 Norte 8 Noroeste 0 -- -- 55
2020-09-22 12:00:00 20.1 0 Calma 6 Sudoeste 0 -- -- 68
2020-09-22 11:00:00 17.3 2 Sur 6 Nordeste 0 -- -- 87
2020-09-22 10:00:00 16 0 Calma 6 Sudoeste 0 -- -- 93
2020-09-22 09:00:00 15.8 0 Calma 3 Sudeste 0 -- -- 95
2020-09-22 08:00:00 15.4 0 Calma -- -- -- -- -- 96
2020-09-22 07:00:00 15.5 0 Calma 5 Sur 0 -- -- 95
2020-09-22 06:00:00 15.5 0 Calma 3 Sudoeste 0 -- -- 95
2020-09-22 05:00:00 15.6 0 Calma 3 Sudeste 0 -- -- 95
2020-09-22 04:00:00 15.8 0 Calma 3 Sudeste 0 -- -- 95
2020-09-22 03:00:00 15.9 0 Calma 4 Nordeste 0 -- -- 96
2020-09-22 02:00:00 15.9 3 Nordeste 5 Nordeste 0 -- -- 96
2020-09-22 01:00:00 16.2 2 Nordeste 5 Nordeste 0 -- -- 95
2020-09-22 00:00:00 16.5 0 Calma 4 Noroeste 0 -- -- 96
2020-09-21 23:00:00 16.6 0 Calma 3 Sudeste 0 -- -- 95
2020-09-21 22:00:00 17 0 Calma 2 Oeste 0 -- -- 93
2020-09-21 21:00:00 17.3 0 Calma 5 Sur 0.4 -- -- 92
2020-09-21 20:00:00 18 0 Calma 11 Nordeste 1.6 -- -- 87
2020-09-21 19:00:00 19.6 4 Norte 14 Norte 0 -- -- 69
2020-09-21 18:00:00 20.8 2 Norte 15 Noroeste 0 -- -- 67
2020-09-21 17:00:00 20.8 9 Norte 15 Norte 0 -- -- 63
2020-09-21 16:00:00 21.5 5 Noroeste 17 Noroeste 0 -- -- 64
2020-09-21 15:00:00 20.4 3 Noroeste 19 Noroeste 0 -- -- 64
2020-09-21 14:00:00 20.2 0 Calma 13 Sudoeste 0 -- -- 74
2020-09-21 13:00:00 18.9 0 Calma 8 Nordeste 0 -- -- 82
2020-09-21 12:00:00 18.3 0 Calma 3 Sudeste 0.2 -- -- 90
2020-09-21 11:00:00 16.9 0 Calma 4 Norte 1.9 -- -- 95
2020-09-21 10:00:00 16.5 2 Sur 5 Sur 4.1 -- -- 95
2020-09-21 09:00:00 16.3 0 Calma -- -- 0 -- -- 93
2020-09-21 08:00:00 15.9 0 Calma -- -- 0 -- -- 95
2020-09-21 07:00:00 15.7 0 Calma 3 Sudoeste 0 -- -- 95
2020-09-21 06:00:00 15.8 0 Calma 4 Noroeste 0 -- -- 96
2020-09-21 05:00:00 15.8 0 Calma 4 Noroeste 0 -- -- 95
2020-09-21 04:00:00 15.9 0 Calma 4 Norte 0 -- -- 95
2020-09-21 03:00:00 16.2 0 Calma 4 Norte 0 -- -- 95
2020-09-21 02:00:00 16.7 0 Calma 3 Noroeste 0 -- -- 93
2020-09-21 01:00:00 17.1 0 Calma 3 Norte 0 -- -- 93
2020-09-21 00:00:00 17.5 0 Calma 2 Noroeste 0 -- -- 92
2020-09-20 23:00:00 17.9 0 Calma 4 Sudeste 0 -- -- 89
2020-09-20 22:00:00 18.2 0 Calma 0 Calma 0 -- -- 89
2020-09-20 21:00:00 18.8 0 Calma 5 Nordeste 0 -- -- 86
2020-09-20 20:00:00 19.6 0 Calma 6 Nordeste 0 -- -- 78
2020-09-20 19:00:00 20.3 3 Sudoeste 10 Nordeste 0 -- -- 73
2020-09-20 18:00:00 21.5 3 Norte 14 Norte 0 -- -- 64
2020-09-20 17:00:00 22 2 Sudeste 16 Nordeste 0 -- -- 60
2020-09-20 16:00:00 24 3 Norte 10 Noroeste 0 -- -- 47
2020-09-20 15:00:00 24.9 3 Sudoeste 13 Sur 0 -- -- 45
2020-09-20 14:00:00 24.5 0 Calma 13 Noroeste 0 -- -- 48
2020-09-20 13:00:00 23 3 Noroeste 10 Noroeste 0 -- -- 51
2020-09-20 12:00:00 19.7 0 Calma 5 Nordeste 0 -- -- 70
2020-09-20 11:00:00 15.7 0 Calma 4 Sudoeste 0 -- -- 96
2020-09-20 10:00:00 14.5 0 Calma 4 Sur 0 -- -- 97
2020-09-20 09:00:00 13.8 3 Sudoeste 5 Sur 0 -- -- 97
2020-09-20 08:00:00 13.9 0 Calma 6 Sudoeste 0 -- -- 97
2020-09-20 07:00:00 14.3 2 Sudoeste 4 Sudoeste 0 -- -- 97
2020-09-20 06:00:00 14.5 0 Calma 5 Sur 0 -- -- 97
2020-09-20 05:00:00 14.6 0 Calma 4 Sudoeste 0 -- -- 97
2020-09-20 04:00:00 15 0 Calma 4 Sudoeste 0 -- -- 97
2020-09-20 03:00:00 15 0 Calma 7 Sudoeste 0 -- -- 96
2020-09-20 02:00:00 15.8 0 Calma 4 Sur 0.1 -- -- 97
2020-09-20 01:00:00 16 0 Calma 4 Norte 0 -- -- 97
2020-09-20 00:00:00 16 0 Calma 4 Sur 0 -- -- 97
2020-09-19 23:00:00 16.8 0 Calma 8 Sudoeste 8.1 -- -- 97
2020-09-19 22:00:00 16.8 0 Calma 4 Noroeste 1.4 -- -- 96
2020-09-19 21:00:00 17.2 0 Calma 3 Sudoeste 0 -- -- 95
2020-09-19 20:00:00 17.9 0 Calma 0 Calma 0 -- -- 92
2020-09-19 19:00:00 18.5 0 Calma 4 Noroeste 0 -- -- 90
2020-09-19 18:00:00 18.3 0 Calma 7 Sur 0.4 -- -- 87
2020-09-19 17:00:00 17.3 0 Calma 32 Sudoeste 2.7 -- -- 85
2020-09-19 16:00:00 23.4 11 Sur 30 Sudoeste 0 -- -- 51
2020-09-19 15:00:00 22.6 8 Sur 30 Sudeste 0 -- -- 55
2020-09-19 14:00:00 21.7 8 Sur 32 Sur 0 -- -- 57
2020-09-19 13:00:00 22.2 7 Sur 35 Sur 0 -- -- 52
2020-09-19 12:00:00 23 10 Sur 32 Sudeste 0 -- -- 52
2020-09-19 11:00:00 22.2 9 Sur 33 Sudoeste 0 -- -- 52
2020-09-19 10:00:00 21.9 14 Sur 42 Sudoeste 0 -- -- 52
2020-09-19 09:00:00 20.6 9 Sur 21 Sudeste 0 -- -- 55
2020-09-19 08:00:00 21.3 6 Sudoeste 27 Sudoeste 0 -- -- 53
2020-09-19 07:00:00 21.6 8 Sur 23 Sudoeste 0 -- -- 57
2020-09-19 06:00:00 21.2 3 Sudoeste 22 Sur 0 -- -- 58
2020-09-19 05:00:00 21.1 4 Sur 17 Sudoeste 0 -- -- 60
2020-09-19 04:00:00 21.5 9 Sur 27 Sur 0 -- -- 60
2020-09-19 03:00:00 21.6 9 Sur 30 Sudoeste 0 -- -- 60
2020-09-19 02:00:00 21.7 10 Sur 33 Sudoeste 0 -- -- 61
2020-09-19 01:00:00 19.6 0 Calma 24 Sur 0 -- -- 70
2020-09-19 00:00:00 20.3 4 Sudoeste 14 Sur 0 -- -- 68
2020-09-18 23:00:00 18.8 0 Calma 10 Sudeste 0 -- -- 68
2020-09-18 22:00:00 20.2 0 Calma 10 Sudeste 0 -- -- 64
2020-09-18 21:00:00 21.5 2 Sudeste 10 Sur 0 -- -- 55
2020-09-18 20:00:00 24.1 3 Sudeste 16 Sudeste 0 -- -- 46
2020-09-18 19:00:00 25.4 5 Sudeste 24 Sur 0 -- -- 44
2020-09-18 18:00:00 26.8 3 Sudeste 20 Sur 0 -- -- 43
2020-09-18 17:00:00 26.6 4 Sur 23 Sur 0 -- -- 43
2020-09-18 16:00:00 26.9 9 Sur 27 Sur 0 -- -- 41
2020-09-18 15:00:00 26.3 6 Sudeste 26 Sudeste 0 -- -- 45
2020-09-18 14:00:00 26.1 3 Sur 17 Este 0 -- -- 48
2020-09-18 13:00:00 24 3 Sur 14 Sudoeste 0 -- -- 52
2020-09-18 12:00:00 23.4 3 Norte 23 Sudoeste 0 -- -- 60
2020-09-18 11:00:00 19.6 2 Norte 10 Norte 0 -- -- 89
2020-09-18 10:00:00 18.3 0 Calma 5 Sudeste 0 -- -- 93
2020-09-18 09:00:00 17.9 0 Calma 8 Sudoeste 0 -- -- 92
2020-09-18 08:00:00 18.6 0 Calma 11 Sur 1.1 -- -- 86
2020-09-18 07:00:00 22 3 Sur 23 Sur 0 -- -- 54
2020-09-18 06:00:00 23.6 9 Sur 35 Sudoeste 0 -- -- 48
2020-09-18 05:00:00 22.6 0 Calma 35 Sudoeste 0 -- -- 52
2020-09-18 04:00:00 21.6 0 Calma 18 Sudeste 0 -- -- 57
2020-09-18 03:00:00 23.6 5 Sudeste 19 Sudeste 0 -- -- 48
2020-09-18 02:00:00 18.5 0 Calma 13 Sur 0 -- -- 83
2020-09-18 01:00:00 18.3 0 Calma 10 Sur 0 -- -- 89
2020-09-18 00:00:00 18.4 0 Calma 7 Sur 0 -- -- 89
2020-09-17 23:00:00 18.6 0 Calma 3 Sudoeste 0 -- -- 89
2020-09-17 22:00:00 19.3 0 Calma 4 Norte 0 -- -- 85
2020-09-17 21:00:00 20.4 0 Calma 4 Sudoeste 0 -- -- 79
2020-09-17 20:00:00 23.1 0 Calma 4 Sudoeste 0 -- -- 74
2020-09-17 19:00:00 25.3 0 Calma 6 Sudoeste 0 -- -- 68
2020-09-17 18:00:00 26.9 0 Calma 9 Sudeste 0 -- -- 60
2020-09-17 17:00:00 27.9 0 Calma 5 Sudoeste 0 -- -- 60
2020-09-17 16:00:00 27.3 0 Calma 7 Este 0 -- -- 56
2020-09-17 15:00:00 28.4 0 Calma 7 Nordeste 0 -- -- 47
2020-09-17 14:00:00 25.9 3 Norte 7 Noroeste 0 -- -- 54
2020-09-17 13:00:00 22.2 0 Calma 4 Noroeste 0 -- -- 77
2020-09-17 12:00:00 21.6 0 Calma 4 Noroeste 0 -- -- 73
2020-09-17 11:00:00 20.1 0 Calma 4 Nordeste 0 -- -- 78
2020-09-17 10:00:00 16.9 0 Calma -- -- 0 -- -- 95
2020-09-17 09:00:00 15 0 Calma -- -- 0 -- -- 96
2020-09-17 08:00:00 13.7 0 Calma -- -- 0 -- -- 96
2020-09-17 07:00:00 14.2 0 Calma -- -- 0 -- -- 96
2020-09-17 06:00:00 14.5 0 Calma -- -- 0 -- -- 96
2020-09-17 05:00:00 14.3 0 Calma -- -- 0 -- -- 95
2020-09-17 04:00:00 14.8 0 Calma -- -- 0 -- -- 95
2020-09-17 03:00:00 15.3 0 Calma -- -- 0 -- -- 95
2020-09-17 02:00:00 15.8 0 Calma -- -- 0 -- -- 95
2020-09-17 01:00:00 16.5 0 Calma -- -- 0 -- -- 94
2020-09-17 00:00:00 17.3 0 Calma 0 Calma 0 -- -- 92
2020-09-16 23:00:00 18.4 0 Calma 4 Noroeste 0 -- -- 90
2020-09-16 22:00:00 20 0 Calma 4 Noroeste 0 -- -- 86
2020-09-16 21:00:00 21.9 2 Noroeste 8 Sur 0 -- -- 81
2020-09-16 20:00:00 24.6 0 Calma 8 Este 0 -- -- 70
2020-09-16 19:00:00 27.5 0 Calma 9 Nordeste 0 -- -- 55
2020-09-16 18:00:00 29.5 4 Nordeste 17 Nordeste 0 -- -- 39
2020-09-16 17:00:00 30.6 8 Nordeste 20 Nordeste 0 -- -- 38
2020-09-16 16:00:00 30.9 9 Nordeste 21 Este 0 -- -- 36
2020-09-16 15:00:00 31.1 5 Nordeste 16 Nordeste 0 -- -- 36
2020-09-16 14:00:00 29.9 0 Calma 6 Sur 0 -- -- 39
2020-09-16 13:00:00 27.1 0 Calma 6 Este 0 -- -- 49
2020-09-16 12:00:00 23.8 0 Calma 5 Nordeste 0 -- -- 59
2020-09-16 11:00:00 19.1 0 Calma 0 Calma 0 -- -- 80
2020-09-16 10:00:00 16.3 0 Calma 3 Nordeste 0 -- -- 95
2020-09-16 09:00:00 14.5 0 Calma -- -- 0 -- -- 97
2020-09-16 08:00:00 14 0 Calma -- -- 0 -- -- 96
2020-09-16 07:00:00 13.7 0 Calma 0 Calma 0 -- -- 96
2020-09-16 06:00:00 13.8 0 Calma 0 Calma 0 -- -- 96
2020-09-16 05:00:00 14 0 Calma 0 Calma 0 -- -- 95
2020-09-16 04:00:00 14.5 0 Calma 2 Sudoeste 0 -- -- 95
2020-09-16 03:00:00 15.1 0 Calma 3 Noroeste 0 -- -- 95
2020-09-16 02:00:00 15.9 0 Calma 2 Sur 0 -- -- 93
2020-09-16 01:00:00 16.6 0 Calma 3 Sur 0 -- -- 92
2020-09-16 00:00:00 17.7 0 Calma 2 Sudoeste 0 -- -- 92
2020-09-15 23:00:00 18.1 0 Calma 2 Noroeste 0 -- -- 89
2020-09-15 22:00:00 19.2 0 Calma 3 Oeste 0 -- -- 86
2020-09-15 21:00:00 21.2 0 Calma 5 Sudoeste 0 -- -- 77
2020-09-15 20:00:00 23.9 2 Sur 13 Este 0 -- -- 64
2020-09-15 19:00:00 28.1 4 Nordeste 18 Nordeste 0 -- -- 47
2020-09-15 18:00:00 28.7 8 Nordeste 15 Nordeste 0 -- -- 48
2020-09-15 17:00:00 27.6 2 Sudeste 7 Nordeste 0 -- -- 52
2020-09-15 16:00:00 27.7 2 Noroeste 6 Noroeste 0 -- -- 46
2020-09-15 15:00:00 30 5 Norte 15 Noroeste 0 -- -- 34
2020-09-15 14:00:00 30 2 Norte 14 Norte 0 -- -- 34
2020-09-15 13:00:00 29.1 4 Noroeste 9 Noroeste 0 -- -- 38
2020-09-15 12:00:00 26.6 2 Noroeste 13 Norte 0 -- -- 47
2020-09-15 11:00:00 23.5 0 Calma 11 Noroeste 0 -- -- 58
2020-09-15 10:00:00 19.1 3 Norte 8 Sur 0 -- -- 92
2020-09-15 09:00:00 17.4 3 Norte 12 Nordeste 0 -- -- 95
2020-09-15 08:00:00 16.7 0 Calma 5 Noroeste 0 -- -- 95
2020-09-15 07:00:00 17.1 0 Calma 4 Noroeste 0 -- -- 95
2020-09-15 06:00:00 17.3 0 Calma 8 Noroeste 0.2 -- -- 94
2020-09-15 05:00:00 17.4 0 Calma 5 Sur 0 -- -- 92
2020-09-15 04:00:00 17.5 0 Calma 4 Nordeste 0 -- -- 89
2020-09-15 03:00:00 17.7 0 Calma 7 Norte 0 -- -- 87
2020-09-15 02:00:00 17.4 2 Sur 7 Sur 0 -- -- 87
2020-09-15 01:00:00 17.9 0 Calma 8 Nordeste 0 -- -- 85
2020-09-15 00:00:00 18.2 0 Calma 7 Sudoeste 0 -- -- 81
2020-09-14 23:00:00 19.5 3 Noroeste 6 Noroeste 0 -- -- 78
2020-09-14 22:00:00 19.5 0 Calma 5 Sur 0 -- -- 76
2020-09-14 21:00:00 21 0 Calma 5 Sudoeste 0 -- -- 71
2020-09-14 20:00:00 23.7 0 Calma 8 Sudoeste 0 -- -- 60
2020-09-14 19:00:00 27 0 Calma 12 Sudoeste 0 -- -- 46
2020-09-14 18:00:00 31.7 5 Sudoeste 23 Sudoeste 0 -- -- 27
2020-09-14 17:00:00 33.6 0 Calma 21 Sudoeste 0 -- -- 26
2020-09-14 16:00:00 34.3 6 Sur 26 Sudoeste 0 -- -- 25
2020-09-14 15:00:00 34.1 3 Este 34 Sudeste 0 -- -- 27
2020-09-14 14:00:00 32.5 8 Sur 32 Sur 0 -- -- 29
2020-09-14 13:00:00 31.2 9 Sur 28 Sudoeste 0 -- -- 30
2020-09-14 12:00:00 30.7 5 Sur 17 Sudeste 0 -- -- 33
2020-09-14 11:00:00 28.2 0 Calma 14 Nordeste 0 -- -- 35
2020-09-14 10:00:00 24.8 3 Sur 19 Sudoeste 0 -- -- 44
2020-09-14 09:00:00 18.5 3 Nordeste 12 Sur 0 -- -- 71
2020-09-14 08:00:00 16.5 0 Calma 10 Nordeste 0 -- -- 75
2020-09-14 07:00:00 17 0 Calma 12 Noroeste 0 -- -- 72
2020-09-14 06:00:00 16.9 2 Sudeste 14 Sudoeste 0 -- -- 73
2020-09-14 05:00:00 17.8 4 Nordeste 15 Norte 0 -- -- 68
2020-09-14 04:00:00 16.3 3 Sur 12 Nordeste 0 -- -- 76
2020-09-14 03:00:00 16.3 0 Calma 10 Este 0 -- -- 80
2020-09-14 02:00:00 15.7 0 Calma 13 Noroeste 0 -- -- 88
2020-09-14 01:00:00 15.2 0 Calma 6 Norte 0 -- -- 92
2020-09-14 00:00:00 15.7 0 Calma 8 Nordeste 0 -- -- 89
2020-09-13 23:00:00 16.5 0 Calma 6 Sur 0 -- -- 87
2020-09-13 22:00:00 17.8 0 Calma 4 Sur 0 -- -- 81
2020-09-13 21:00:00 20 0 Calma 5 Sur 0 -- -- 72
2020-09-13 20:00:00 23.7 0 Calma 4 Sudoeste 0 -- -- 57
2020-09-13 19:00:00 27.8 0 Calma 6 Sudoeste 0 -- -- 42
2020-09-13 18:00:00 30.8 0 Calma 11 Oeste 0 -- -- 35
2020-09-13 17:00:00 33.2 0 Calma 14 Noroeste 0 -- -- 31
2020-09-13 16:00:00 33.9 0 Calma 15 Oeste 0 -- -- 28
2020-09-13 15:00:00 32.3 4 Noroeste 21 Este 0 -- -- 32
2020-09-13 14:00:00 30.9 4 Noroeste -- -- -- -- -- 34
2020-09-13 13:00:00 27.4 0 Calma 7 Sudoeste 0 -- -- 51
2020-09-13 12:00:00 21.7 0 Calma 7 Nordeste 0 -- -- 66
2020-09-13 11:00:00 16.6 0 Calma 6 Sur 0 -- -- 89
2020-09-13 10:00:00 13.5 0 Calma 6 Norte 0 -- -- 97
2020-09-13 09:00:00 13 0 Calma 5 Nordeste 0 -- -- 97
2020-09-13 08:00:00 12.9 0 Calma 5 Este 0 -- -- 97
2020-09-13 07:00:00 13.1 0 Calma 4 Nordeste 0 -- -- 97
2020-09-13 06:00:00 13.3 0 Calma 4 Noroeste 0 -- -- 97
2020-09-13 05:00:00 13.1 0 Calma 2 Noroeste 0 -- -- 97
2020-09-13 04:00:00 13 0 Calma 2 Sudoeste 0 -- -- 96
2020-09-13 03:00:00 12.8 0 Calma 0 Calma 0 -- -- 95
2020-09-13 02:00:00 13.6 0 Calma 2 Noroeste 0 -- -- 94
2020-09-13 01:00:00 14.4 0 Calma 3 Norte 0 -- -- 94
2020-09-13 00:00:00 15.5 0 Calma 2 Sudoeste 0 -- -- 92
2020-09-12 23:00:00 16.4 0 Calma 3 Noroeste 0 -- -- 91
2020-09-12 22:00:00 17.9 0 Calma 4 Noroeste 0 -- -- 88
2020-09-12 21:00:00 20.2 0 Calma 5 Sudoeste 0 -- -- 80
2020-09-12 20:00:00 23.1 0 Calma 9 Sudeste 0 -- -- 66
2020-09-12 19:00:00 25.3 0 Calma 10 Nordeste 0 -- -- 58
2020-09-12 18:00:00 26.5 3 Nordeste 17 Este 0 -- -- 52
2020-09-12 17:00:00 27.2 8 Nordeste 20 Nordeste 0 -- -- 45
2020-09-12 16:00:00 27.6 9 Nordeste 24 Nordeste 0 -- -- 43
2020-09-12 15:00:00 27.6 3 Este 14 Nordeste 0 -- -- 44
2020-09-12 14:00:00 25.7 0 Calma 8 Sudoeste 0 -- -- 56
2020-09-12 13:00:00 22.6 3 Norte 7 Oeste 0 -- -- 64
2020-09-12 12:00:00 19.8 0 Calma 7 Este 0 -- -- 75
2020-09-12 11:00:00 16.9 0 Calma 5 Norte 0 -- -- 89
2020-09-12 10:00:00 15.6 0 Calma 3 Sur 0 -- -- 93
2020-09-12 09:00:00 14.7 0 Calma 4 Sudoeste 0 -- -- 96
2020-09-12 08:00:00 13.9 0 Calma 3 Oeste 0 -- -- 96
2020-09-12 07:00:00 14.1 0 Calma 3 Sudoeste 0 -- -- 96
2020-09-12 06:00:00 14.3 0 Calma 4 Sudoeste 0 -- -- 96
2020-09-12 05:00:00 14.3 0 Calma 3 Noroeste 0 -- -- 96
2020-09-12 04:00:00 13.6 0 Calma 3 Sur 0 -- -- 96
2020-09-12 03:00:00 13.3 0 Calma 3 Sur 0 -- -- 95
2020-09-12 02:00:00 14 0 Calma 3 Sudoeste 0 -- -- 94
2020-09-12 01:00:00 14.3 0 Calma 0 Calma 0 -- -- 93
2020-09-12 00:00:00 15.2 0 Calma 3 Norte 0 -- -- 92
2020-09-11 23:00:00 16.1 0 Calma 2 Norte 0 -- -- 90
2020-09-11 22:00:00 17.9 0 Calma 5 Sur 0 -- -- 85
2020-09-11 21:00:00 19.4 0 Calma 7 Nordeste 0 -- -- 77
2020-09-11 20:00:00 21.8 4 Nordeste 11 Nordeste 0 -- -- 70
2020-09-11 19:00:00 24.2 3 Norte 15 Norte 0 -- -- 62
2020-09-11 18:00:00 25.2 8 Norte 22 Nordeste 0 -- -- 56
2020-09-11 17:00:00 26.7 4 Nordeste 21 Nordeste 0 -- -- 45
2020-09-11 16:00:00 27.1 5 Nordeste 20 Nordeste 0 -- -- 48
2020-09-11 15:00:00 25.8 10 Nordeste 17 Nordeste 0 -- -- 49
2020-09-11 14:00:00 25.6 4 Este 15 Este 0 -- -- 53
2020-09-11 13:00:00 23.5 2 Oeste 7 Noroeste 0 -- -- 60
2020-09-11 12:00:00 21.4 0 Calma 6 Sur 0 -- -- 68
2020-09-11 11:00:00 17.5 0 Calma 3 Este 0 -- -- 86
2020-09-11 10:00:00 15.2 0 Calma 3 Norte 0 -- -- 94
2020-09-11 09:00:00 13.5 0 Calma 0 Calma 0 -- -- 97
2020-09-11 08:00:00 11.9 0 Calma 3 Noroeste 0 -- -- 96
2020-09-11 07:00:00 12.1 0 Calma 2 Sudoeste 0 -- -- 96
2020-09-11 06:00:00 13.1 0 Calma 2 Noroeste 0 -- -- 96
2020-09-11 05:00:00 13 0 Calma 2 Noroeste 0 -- -- 96
2020-09-11 04:00:00 12.7 0 Calma -- -- 0 -- -- 95
2020-09-11 03:00:00 13 0 Calma 3 Sudoeste 0 -- -- 96
2020-09-11 02:00:00 13.1 0 Calma 2 Sur 0 -- -- 95
2020-09-11 01:00:00 13.5 0 Calma 2 Sudoeste 0 -- -- 94
2020-09-11 00:00:00 14.3 0 Calma 0 Calma 0 -- -- 92
2020-09-10 23:00:00 15.2 0 Calma 3 Sudoeste 0 -- -- 90
2020-09-10 22:00:00 16.8 0 Calma 3 Noroeste 0 -- -- 87
2020-09-10 21:00:00 18.7 0 Calma 6 Sudeste 0 -- -- 82
2020-09-10 20:00:00 21 0 Calma 14 Norte 0 -- -- 71
2020-09-10 19:00:00 23.7 7 Norte 17 Norte 0 -- -- 52
2020-09-10 18:00:00 24.6 9 Norte 21 Nordeste 0 -- -- 46
2020-09-10 17:00:00 25.5 5 Norte 17 Norte 0 -- -- 46
2020-09-10 16:00:00 26 6 Norte 16 Norte 0 -- -- 45
2020-09-10 15:00:00 25.5 7 Norte 17 Norte 0 -- -- 47
2020-09-10 14:00:00 25.9 0 Calma 10 Sudeste 0 -- -- 47
2020-09-10 13:00:00 24.4 3 Sudeste 8 Sur 0 -- -- 48
2020-09-10 12:00:00 20.7 0 Calma 6 Norte 0 -- -- 52
2020-09-10 11:00:00 16.3 0 Calma -- -- 0 -- -- 77
2020-09-10 10:00:00 13.1 0 Calma 0 Calma 0 -- -- 92
2020-09-10 09:00:00 11 0 Calma -- -- 0 -- -- 96
2020-09-10 08:00:00 9.6 0 Calma -- -- 0 -- -- 96
2020-09-10 07:00:00 9.8 0 Calma -- -- 0 -- -- 96
2020-09-10 06:00:00 10.3 0 Calma -- -- 0 -- -- 95
2020-09-10 05:00:00 10.8 0 Calma -- -- 0 -- -- 95
2020-09-10 04:00:00 11.3 0 Calma -- -- 0 -- -- 95
2020-09-10 03:00:00 12 0 Calma -- -- 0 -- -- 95
2020-09-10 02:00:00 12.5 0 Calma -- -- 0 -- -- 95
2020-09-10 01:00:00 12.8 0 Calma -- -- 0 -- -- 92
2020-09-10 00:00:00 13.7 0 Calma 2 Sur 0 -- -- 90
2020-09-09 23:00:00 14.6 0 Calma 2 Sudoeste 0 -- -- 88
2020-09-09 22:00:00 15.9 0 Calma 4 Sudoeste 0 -- -- 83
2020-09-09 21:00:00 18.1 0 Calma 12 Nordeste 0 -- -- 71
2020-09-09 20:00:00 21.6 3 Este 15 Norte 0 -- -- 52
2020-09-09 19:00:00 23.3 9 Norte 21 Norte 0 -- -- 48
2020-09-09 18:00:00 25.1 5 Norte 23 Noroeste 0 -- -- 49
2020-09-09 17:00:00 27 9 Nordeste 23 Norte 0 -- -- 41
2020-09-09 16:00:00 27.2 9 Norte 29 Norte 0 -- -- 36
2020-09-09 15:00:00 27.2 9 Nordeste 30 Este 0 -- -- 36
2020-09-09 14:00:00 26.8 2 Sudeste 9 Sur 0 -- -- 42
2020-09-09 13:00:00 23.8 2 Este 5 Nordeste 0 -- -- 51
2020-09-09 12:00:00 19.6 2 Norte 7 Sur 0 -- -- 58
2020-09-09 11:00:00 15.1 0 Calma 5 Nordeste 0 -- -- 80
2020-09-09 10:00:00 12 0 Calma 4 Nordeste 0 -- -- 93
2020-09-09 09:00:00 9.8 0 Calma 4 Noroeste 0 -- -- 97
2020-09-09 08:00:00 8.2 0 Calma 0 Calma 0 -- -- 96
2020-09-09 07:00:00 8.5 0 Calma 3 Norte 0 -- -- 96
2020-09-09 06:00:00 8.8 0 Calma 4 Sur 0 -- -- 96
2020-09-09 05:00:00 9.4 2 Noroeste 6 Norte 0 -- -- 96
2020-09-09 04:00:00 9.7 0 Calma 4 Sur 0 -- -- 96
2020-09-09 03:00:00 10.2 0 Calma 3 Sudeste 0 -- -- 95
2020-09-09 02:00:00 10.5 0 Calma 4 Sudoeste 0 -- -- 94
2020-09-09 01:00:00 11.3 0 Calma -- -- 0 -- -- 92
2020-09-09 00:00:00 12 0 Calma 4 Sudoeste 0 -- -- 92
2020-09-08 23:00:00 13.2 0 Calma 3 Norte 0 -- -- 87
2020-09-08 22:00:00 14.6 0 Calma 3 Noroeste 0 -- -- 81
2020-09-08 21:00:00 17.1 0 Calma 4 Sudoeste 0 -- -- 72
2020-09-08 20:00:00 20.6 0 Calma 14 Nordeste 0 -- -- 50
2020-09-08 19:00:00 23.6 8 Nordeste 18 Nordeste 0 -- -- 36
2020-09-08 18:00:00 24 5 Nordeste 16 Nordeste 0 -- -- 36
2020-09-08 17:00:00 24.5 8 Nordeste 21 Nordeste 0 -- -- 35
2020-09-08 16:00:00 24.5 8 Nordeste 20 Nordeste 0 -- -- 35
2020-09-08 15:00:00 24.4 6 Nordeste 22 Nordeste 0 -- -- 36
2020-09-08 14:00:00 23.7 9 Nordeste 20 Este 0 -- -- 36
2020-09-08 13:00:00 22.7 10 Nordeste 22 Nordeste 0 -- -- 37
2020-09-08 12:00:00 18.8 0 Calma 5 Sur 0.2 -- -- 60
2020-09-08 11:00:00 14.2 0 Calma 5 Nordeste 0 -- -- 82
2020-09-08 10:00:00 10.7 0 Calma 4 Sur 0 -- -- 98
2020-09-08 09:00:00 9.5 0 Calma 3 Sur 0 -- -- 98
2020-09-08 08:00:00 8.7 0 Calma -- -- 0 -- -- 97
2020-09-08 07:00:00 8.6 0 Calma -- -- 0 -- -- 97
2020-09-08 06:00:00 8.5 0 Calma -- -- 0 -- -- 97
2020-09-08 05:00:00 8.8 0 Calma -- -- 0 -- -- 96
2020-09-08 04:00:00 9.2 0 Calma -- -- 0 -- -- 96
2020-09-08 03:00:00 10.1 0 Calma -- -- 0 -- -- 95
2020-09-08 02:00:00 10.8 0 Calma -- -- 0 -- -- 93
2020-09-08 01:00:00 11.8 0 Calma 3 Sudoeste 0 -- -- 92
2020-09-08 00:00:00 13.1 0 Calma 6 Noroeste 0 -- -- 90
2020-09-07 23:00:00 13.7 0 Calma 4 Sudoeste 0 -- -- 87
2020-09-07 22:00:00 14 0 Calma 7 Norte 0 -- -- 83
2020-09-07 21:00:00 15.3 0 Calma 8 Sudoeste 0 -- -- 73
2020-09-07 20:00:00 17.2 3 Norte 22 Norte 0 -- -- 60
2020-09-07 19:00:00 18.9 9 Norte 25 Norte 0 -- -- 52
2020-09-07 18:00:00 18.7 16 Norte 31 Norte 0 -- -- 50
2020-09-07 17:00:00 19.3 18 Norte 32 Norte 0 -- -- 49
2020-09-07 16:00:00 20.1 12 Norte 25 Norte 0 -- -- 44
2020-09-07 15:00:00 21.1 9 Nordeste 25 Nordeste 0 -- -- 39
2020-09-07 14:00:00 20.6 8 Nordeste 28 Este 0 -- -- 40
2020-09-07 13:00:00 19.3 11 Nordeste 24 Norte 0 -- -- 42
2020-09-07 12:00:00 18.6 10 Nordeste 23 Norte 0 -- -- 45
2020-09-07 11:00:00 16.4 0 Calma 6 Nordeste 0 -- -- 68
2020-09-07 10:00:00 13.9 0 Calma 3 Nordeste 0 -- -- 83
2020-09-07 09:00:00 11.6 0 Calma 3 Nordeste 0 -- -- 94
2020-09-07 08:00:00 11.5 0 Calma -- -- 0 -- -- 94
2020-09-07 07:00:00 12.2 0 Calma -- -- 0 -- -- 94
2020-09-07 06:00:00 12.6 0 Calma -- -- 0 -- -- 93
2020-09-07 05:00:00 13 0 Calma -- -- 0 -- -- 92
2020-09-07 04:00:00 13.5 0 Calma 3 Sur 0 -- -- 91
2020-09-07 03:00:00 14 0 Calma 3 Sur 0 -- -- 89
2020-09-07 02:00:00 14.3 0 Calma 4 Sudoeste 0 -- -- 88
2020-09-07 01:00:00 14.3 0 Calma 3 Sudoeste 0 -- -- 85
2020-09-07 00:00:00 14.7 2 Sur 4 Sur 0 -- -- 80
2020-09-06 23:00:00 15.9 0 Calma 8 Este 0 -- -- 70
2020-09-06 22:00:00 16.4 3 Norte 11 Este 0 -- -- 68
2020-09-06 21:00:00 16.6 0 Calma 15 Nordeste 0 -- -- 66
2020-09-06 20:00:00 17 0 Calma 16 Nordeste 0 -- -- 66
2020-09-06 19:00:00 18.2 10 Norte 24 Noroeste 0 -- -- 55
2020-09-06 18:00:00 18.2 3 Norte 20 Norte 0 -- -- 64
2020-09-06 17:00:00 18.8 8 Noroeste 22 Norte 0 -- -- 59
2020-09-06 16:00:00 19.6 7 Norte 23 Noroeste 0 -- -- 54
2020-09-06 15:00:00 20 6 Noroeste 23 Norte 0 -- -- 52
2020-09-06 14:00:00 21.8 9 Norte 21 Norte 0 -- -- 47
2020-09-06 13:00:00 20 0 Calma 9 Sudoeste 0 -- -- 60
2020-09-06 12:00:00 17.7 0 Calma 10 Sur 0 -- -- 73
2020-09-06 11:00:00 17.2 0 Calma 6 Sudoeste 0 -- -- 75
2020-09-06 10:00:00 16.3 2 Sudoeste 5 Sudoeste 0 -- -- 94
2020-09-06 09:00:00 15.8 0 Calma 4 Norte 0 -- -- 96
2020-09-06 08:00:00 15.7 0 Calma 4 Sur 0 -- -- 96
2020-09-06 07:00:00 15.7 0 Calma 3 Sur 0 -- -- 95
2020-09-06 06:00:00 15.7 0 Calma 3 Sudeste 0.2 -- -- 95
2020-09-06 05:00:00 15.9 0 Calma 3 Noroeste 0 -- -- 94
2020-09-06 04:00:00 16.1 0 Calma 4 Noroeste 0 -- -- 94
2020-09-06 03:00:00 16.4 0 Calma 3 Norte 0 -- -- 93
2020-09-06 02:00:00 16.4 0 Calma 4 Noroeste 0 -- -- 92
2020-09-06 01:00:00 16.7 0 Calma 3 Este 0 -- -- 90
2020-09-06 00:00:00 17.1 0 Calma 5 Norte 0 -- -- 88
2020-09-05 23:00:00 17.8 3 Norte 10 Norte 0 -- -- 78
2020-09-05 22:00:00 18.2 6 Norte 13 Nordeste 0 -- -- 78
2020-09-05 21:00:00 18.5 3 Norte 9 Norte 0 -- -- 80
2020-09-05 20:00:00 18.7 0 Calma 12 Norte 0 -- -- 82
2020-09-05 19:00:00 19.3 2 Norte 7 Norte 0 -- -- 76
2020-09-05 18:00:00 20 3 Nordeste 14 Nordeste 0 -- -- 71
2020-09-05 17:00:00 20.2 5 Norte 14 Norte 0 -- -- 71
2020-09-05 16:00:00 20.7 2 Noroeste 8 Noroeste 0 -- -- 70
2020-09-05 15:00:00 20.9 2 Sudeste 9 Nordeste 0 -- -- 73
2020-09-05 14:00:00 20.6 0 Calma 7 Sudoeste 0 -- -- 77
2020-09-05 13:00:00 19.9 3 Sudoeste 7 Sudoeste 0 -- -- 80
2020-09-05 12:00:00 18.4 0 Calma 6 Noroeste 0 -- -- 84
2020-09-05 11:00:00 17.3 0 Calma 3 Sur 0 -- -- 87
2020-09-05 10:00:00 16.6 0 Calma 2 Nordeste 0 -- -- 89
2020-09-05 09:00:00 -- 0 Calma 2 Noroeste 0 -- -- --
2020-09-05 08:00:00 14.3 0 Calma 4 Norte 0 -- -- 96
2020-09-05 07:00:00 13.8 0 Calma 3 Noroeste 0 -- -- 97
2020-09-05 06:00:00 12.7 0 Calma 2 Sudoeste 0 -- -- 96
2020-09-05 05:00:00 13.1 0 Calma 5 Norte 0 -- -- 95
2020-09-05 04:00:00 13.4 0 Calma 6 Sudoeste 0 -- -- 95
2020-09-05 03:00:00 13.7 0 Calma 3 Sudeste 0 -- -- 94
2020-09-05 02:00:00 14.3 0 Calma 3 Noroeste 0 -- -- 93
2020-09-05 01:00:00 14.9 0 Calma -- -- 0 -- -- 92
2020-09-05 00:00:00 15.8 0 Calma -- -- 0 -- -- 89
2020-09-04 23:00:00 16.9 0 Calma 2 Sudoeste 0 -- -- 86
2020-09-04 22:00:00 18.2 0 Calma 4 Sudoeste 0 -- -- 79
2020-09-04 21:00:00 20.6 0 Calma 4 Sudoeste 0 -- -- 64
2020-09-04 20:00:00 23.8 0 Calma 5 Sudoeste 0 -- -- 50
2020-09-04 19:00:00 28.2 0 Calma 4 Sudoeste 0 -- -- 45
2020-09-04 18:00:00 30.4 0 Calma 9 Noroeste 0 -- -- 37
2020-09-04 17:00:00 32.9 3 Noroeste 9 Noroeste 0 -- -- 29
2020-09-04 16:00:00 32.6 3 Noroeste 9 Noroeste 0 -- -- 29
2020-09-04 15:00:00 32 4 Noroeste 12 Noroeste 0 -- -- 31
2020-09-04 14:00:00 30.8 7 Noroeste 12 Noroeste 0 -- -- 34
2020-09-04 13:00:00 28.4 7 Noroeste 14 Noroeste 0 -- -- 37
2020-09-04 12:00:00 25.7 0 Calma 12 Sur 0 -- -- 51
2020-09-04 11:00:00 18.6 3 Norte 7 Norte 0 -- -- 73
2020-09-04 10:00:00 13.9 0 Calma 6 Norte 0 -- -- 91
2020-09-04 09:00:00 11.5 0 Calma 4 Este 0 -- -- 97
2020-09-04 08:00:00 10.1 0 Calma 4 Sur 0 -- -- 97
2020-09-04 07:00:00 9.8 0 Calma -- -- 0 -- -- 96
2020-09-04 06:00:00 10 0 Calma -- -- 0 -- -- 96
2020-09-04 05:00:00 10.4 0 Calma -- -- 0 -- -- 96
2020-09-04 04:00:00 10.9 0 Calma -- -- 0 -- -- 95
2020-09-04 03:00:00 11.8 0 Calma -- -- 0 -- -- 95
2020-09-04 02:00:00 12.5 0 Calma 2 Sudoeste 0 -- -- 94
2020-09-04 01:00:00 13.4 0 Calma 3 Noroeste 0 -- -- 92
2020-09-04 00:00:00 14.2 0 Calma 3 Sudoeste 0 -- -- 92
2020-09-03 23:00:00 15.4 0 Calma -- -- 0 -- -- 89
2020-09-03 22:00:00 16.8 0 Calma -- -- 0 -- -- 84
2020-09-03 21:00:00 19.7 0 Calma 4 Oeste 0 -- -- 73
2020-09-03 20:00:00 22.5 4 Sudoeste 11 Norte 0 -- -- 57
2020-09-03 19:00:00 26.9 5 Nordeste 13 Nordeste 0 -- -- 40
2020-09-03 18:00:00 27.6 6 Nordeste 17 Nordeste 0 -- -- 38
2020-09-03 17:00:00 28.1 4 Nordeste 16 Nordeste 0 -- -- 37
2020-09-03 16:00:00 28 5 Nordeste 12 Nordeste 0 -- -- 37
2020-09-03 15:00:00 27.9 3 Nordeste 9 Nordeste 0 -- -- 38
2020-09-03 14:00:00 26.8 2 Nordeste 7 Nordeste 0 -- -- 42
2020-09-03 13:00:00 23 0 Calma 5 Este 0 -- -- 45
2020-09-03 12:00:00 18.6 0 Calma 5 Nordeste 0 -- -- 57
2020-09-03 11:00:00 14 0 Calma 6 Norte 0 -- -- 82
2020-09-03 10:00:00 10.7 0 Calma 3 Sudeste 0 -- -- 97
2020-09-03 09:00:00 9.4 0 Calma 4 Norte 0 -- -- 97
2020-09-03 08:00:00 9.2 0 Calma 3 Sur 0 -- -- 97
2020-09-03 07:00:00 9.2 0 Calma 3 Norte 0 -- -- 97
2020-09-03 06:00:00 8.4 0 Calma 2 Sudoeste 0 -- -- 96
2020-09-03 05:00:00 8.4 0 Calma 3 Sur 0 -- -- 96
2020-09-03 04:00:00 8.9 0 Calma 2 Oeste 0 -- -- 95
2020-09-03 03:00:00 9.5 0 Calma 3 Sur 0 -- -- 95
2020-09-03 02:00:00 10 0 Calma 4 Noroeste 0 -- -- 95
2020-09-03 01:00:00 10.8 0 Calma -- -- 0 -- -- 93
2020-09-03 00:00:00 11.7 0 Calma -- -- 0 -- -- 91
2020-09-02 23:00:00 12.5 0 Calma 2 Nordeste 0 -- -- 89
2020-09-02 22:00:00 14 0 Calma 5 Sudoeste 0 -- -- 84
2020-09-02 21:00:00 15.7 3 Sudoeste 12 Norte 0 -- -- 72
2020-09-02 20:00:00 19.4 6 Norte 24 Noroeste 0 -- -- 48
2020-09-02 19:00:00 20.6 12 Norte 27 Noroeste 0 -- -- 44
2020-09-02 18:00:00 21.8 12 Norte 27 Norte 0 -- -- 41
2020-09-02 17:00:00 23.7 8 Norte 26 Norte 0 -- -- 36
2020-09-02 16:00:00 23.9 8 Norte 19 Norte 0 -- -- 35
2020-09-02 15:00:00 23.4 6 Norte 21 Nordeste 0 -- -- 35
2020-09-02 14:00:00 23.1 7 Norte 20 Norte 0 -- -- 37
2020-09-02 13:00:00 22.5 5 Nordeste 15 Nordeste 0 -- -- 38
2020-09-02 12:00:00 19.4 0 Calma 6 Sudoeste 0 -- -- 60
2020-09-02 11:00:00 14.6 0 Calma 6 Norte 0 -- -- 85
2020-09-02 10:00:00 12.1 0 Calma 4 Nordeste 0 -- -- 97
2020-09-02 09:00:00 11.4 2 Nordeste 5 Nordeste 0 -- -- 97
2020-09-02 08:00:00 11.2 0 Calma 5 Nordeste 0 -- -- 97
2020-09-02 07:00:00 11.7 3 Nordeste 5 Nordeste 0 -- -- 97
2020-09-02 06:00:00 12.4 0 Calma 0 Calma 0 -- -- 97
2020-09-02 05:00:00 12.7 0 Calma -- -- 0 -- -- 97
2020-09-02 04:00:00 12.3 0 Calma -- -- 0 -- -- 96
2020-09-02 03:00:00 12.6 0 Calma -- -- 0 -- -- 93
2020-09-02 02:00:00 13.8 0 Calma -- -- 0 -- -- 93
2020-09-02 01:00:00 14.7 0 Calma -- -- 0 -- -- 93
2020-09-02 00:00:00 14.9 0 Calma 3 Nordeste 0 -- -- 92
2020-09-01 23:00:00 15.6 0 Calma 4 Norte 0 -- -- 89
2020-09-01 22:00:00 16.1 0 Calma 6 Sudoeste 0 -- -- 86
2020-09-01 21:00:00 17.5 0 Calma 5 Sudoeste 0 -- -- 78
2020-09-01 20:00:00 19.3 0 Calma 17 Norte 0 -- -- 65
2020-09-01 19:00:00 20.3 10 Norte 24 Norte 0 -- -- 55
2020-09-01 18:00:00 22.5 9 Norte 19 Norte 0 -- -- 46
2020-09-01 17:00:00 23.2 9 Norte 21 Noroeste 0 -- -- 43
2020-09-01 16:00:00 24.6 9 Norte 18 Norte 0 -- -- 37
2020-09-01 15:00:00 23.9 7 Noroeste 15 Norte 0 -- -- 37
2020-09-01 14:00:00 24.5 3 Sur 10 Sur 0 -- -- 39
2020-09-01 13:00:00 22.4 3 Sudoeste 6 Sur 0 -- -- 39
2020-09-01 12:00:00 18.7 2 Nordeste 5 Este 0 -- -- 49
2020-09-01 11:00:00 13.7 3 Norte 6 Nordeste 0 -- -- 89
2020-09-01 10:00:00 11.5 0 Calma 6 Sudoeste 0 -- -- 97
2020-09-01 09:00:00 11.4 0 Calma 6 Sudoeste 0 -- -- 96
2020-09-01 08:00:00 10.8 0 Calma 4 Sudoeste 0 -- -- 95
2020-09-01 07:00:00 10.7 0 Calma 6 Sudoeste 0 -- -- 94
2020-09-01 06:00:00 11 0 Calma 3 Sur 0 -- -- 95
2020-09-01 05:00:00 11.2 0 Calma 4 Noroeste 0 -- -- 95
2020-09-01 04:00:00 11.8 0 Calma 3 Sudoeste 0 -- -- 95
2020-09-01 03:00:00 12.3 0 Calma 3 Sudoeste 0 -- -- 94
2020-09-01 02:00:00 12.6 0 Calma 4 Noroeste 0 -- -- 94
2020-09-01 01:00:00 12.7 0 Calma -- -- 0 -- -- 93
2020-09-01 00:00:00 13.1 0 Calma 2 Sudoeste 0 -- -- 92
2020-08-31 23:00:00 14 0 Calma 3 Sur 0 -- -- 91
2020-08-31 22:00:00 14.6 0 Calma 5 Noroeste 0 -- -- 86
2020-08-31 21:00:00 16.5 0 Calma 4 Noroeste 0 -- -- 78
2020-08-31 20:00:00 17.7 0 Calma 9 Nordeste 0 -- -- 72
2020-08-31 19:00:00 21 6 Nordeste 16 Nordeste 0 -- -- 45
2020-08-31 18:00:00 21.6 6 Norte 19 Nordeste 0 -- -- 44
2020-08-31 17:00:00 22.6 5 Nordeste 16 Norte 0 -- -- 39
2020-08-31 16:00:00 22.2 4 Nordeste 14 Nordeste 0 -- -- 39
2020-08-31 15:00:00 22.1 5 Nordeste 13 Norte 0 -- -- 40
2020-08-31 14:00:00 20.9 8 Nordeste 17 Nordeste 0 -- -- 44
2020-08-31 13:00:00 20.6 3 Sudeste -- -- -- -- -- 52
2020-08-31 12:00:00 -- 2 Nordeste 12 Este 0 -- -- --
2020-08-31 11:00:00 -- 0 Calma 10 Este 0 -- -- --
2020-08-31 10:00:00 -- 5 Nordeste 7 Nordeste 0 -- -- --
2020-08-31 09:00:00 -- 0 Calma 8 Este 0 -- -- --
2020-08-31 08:00:00 -- 0 Calma 9 Este 0 -- -- --
2020-08-31 07:00:00 -- 4 Este 10 Este 0 -- -- --
2020-08-31 06:00:00 -- 2 Este 8 Oeste 0 -- -- --
2020-08-31 05:00:00 -- 3 Nordeste 6 Nordeste 0 -- -- --
2020-08-31 04:00:00 -- 0 Calma -- -- 0 -- -- --
2020-08-31 03:00:00 -- 0 Calma -- -- 0 -- -- --
2020-08-31 02:00:00 -- -- -- -- -- 0 -- -- --
2020-08-31 01:00:00 -- 0 Calma -- -- 0 -- -- --
2020-08-31 00:00:00 -- 0 Calma 3 Nordeste 0 -- -- --
2020-08-30 23:00:00 -- 0 Calma 4 Sur 0 -- -- --
2020-08-30 22:00:00 -- 0 Calma -- -- 0 -- -- --
2020-08-30 21:00:00 -- 2 Sudoeste 8 Sudoeste 0 -- -- --
2020-08-30 20:00:00 -- 3 Norte 13 Norte 0 -- -- --
2020-08-30 19:00:00 -- 3 Norte 13 Noroeste 0 -- -- --
2020-08-30 18:00:00 -- 10 Noroeste 23 Noroeste 0 -- -- --
2020-08-30 17:00:00 -- 8 Nordeste 32 Norte 0 -- -- --
2020-08-30 16:00:00 -- 3 Noroeste 19 Sudoeste 0 -- -- --
2020-08-30 15:00:00 -- 5 Noroeste 15 Norte 0.1 -- -- --
2020-08-30 14:00:00 -- 5 Noroeste 20 Noroeste 0 -- -- --
2020-08-30 13:00:00 -- 11 Noroeste 24 Noroeste 0 -- -- --
2020-08-30 12:00:00 -- 2 Norte 19 Noroeste 1.1 -- -- --
2020-08-30 11:00:00 -- 0 Calma 9 Nordeste 1.7 -- -- --
2020-08-30 10:00:00 -- 4 Nordeste 8 Oeste 1.2 -- -- --
2020-08-30 09:00:00 -- 4 Norte -- -- 0.8 -- -- --
2020-08-30 08:00:00 -- 0 Calma -- -- 0.6 -- -- --
2020-08-30 07:00:00 -- 0 Calma -- -- 1 -- -- --
2020-08-30 06:00:00 -- 2 Noroeste 7 Norte 3.2 -- -- --
2020-08-30 05:00:00 -- 3 Noroeste -- -- -- -- -- --
2020-08-30 04:00:00 -- 2 Noroeste 7 Oeste 2.2 -- -- --
2020-08-30 03:00:00 -- -- -- -- -- 0 -- -- --
2020-08-30 02:00:00 -- 3 Nordeste -- -- 0 -- -- --
2020-08-30 01:00:00 -- 0 Calma 30 Noroeste 16.4 -- -- --
2020-08-30 00:00:00 -- 11 Noroeste 32 Noroeste 15.3 -- -- --
2020-08-29 23:00:00 -- 5 Nordeste 19 Noroeste 1.5 -- -- --
2020-08-29 22:00:00 14.2 3 Noroeste 19 Oeste 3.3 -- -- 95
2020-08-29 21:00:00 14.6 0 Calma 10 Sudoeste 3.7 -- -- 93
2020-08-29 20:00:00 15.1 0 Calma 9 Sudoeste 2 -- -- 92
2020-08-29 19:00:00 16.1 2 Noroeste 8 Nordeste 0.1 -- -- 89
2020-08-29 18:00:00 16.5 0 Calma 13 Oeste 1.5 -- -- 91
2020-08-29 17:00:00 16.7 0 Calma 14 Sur 0.9 -- -- 83
2020-08-29 16:00:00 16.7 4 Sudeste 24 Norte 1.4 -- -- 86
2020-08-29 15:00:00 19.6 3 Este 15 Norte 0.1 -- -- 64
2020-08-29 14:00:00 19.9 6 Noroeste 24 Noroeste 0 -- -- 52
2020-08-29 13:00:00 18.6 6 Noroeste 17 Noroeste 0 -- -- 60
2020-08-29 12:00:00 17.1 5 Sudoeste 14 Noroeste 0 -- -- 68
2020-08-29 11:00:00 15.5 4 Sudoeste 8 Sudoeste 0 -- -- 86
2020-08-29 10:00:00 14.3 0 Calma 6 Sur 0.2 -- -- 94
2020-08-29 09:00:00 14 0 Calma 5 Sur 0.1 -- -- 97
2020-08-29 08:00:00 13.4 2 Noroeste 4 Norte 0.5 -- -- 97
2020-08-29 07:00:00 13.2 4 Sudoeste 6 Sur 0 -- -- 97
2020-08-29 06:00:00 13 0 Calma 5 Sudoeste 0.1 -- -- 96
2020-08-29 05:00:00 12.9 0 Calma 4 Sur 0 -- -- 96
2020-08-29 04:00:00 13.2 0 Calma 5 Sur 0.2 -- -- 96
2020-08-29 03:00:00 13.8 0 Calma 3 Sudeste 0 -- -- 96
2020-08-29 02:00:00 14.6 0 Calma 4 Sur 0.4 -- -- 96
2020-08-29 01:00:00 14.6 0 Calma 5 Noroeste 0.1 -- -- 96
2020-08-29 00:00:00 14.9 0 Calma 5 Noroeste 0.7 -- -- 96
2020-08-28 23:00:00 15.2 0 Calma 4 Sur 0 -- -- 96
2020-08-28 22:00:00 15.1 0 Calma -- -- -- -- -- 95
2020-08-28 21:00:00 15.2 3 Sudoeste 9 Sudoeste 0.2 -- -- 94
2020-08-28 20:00:00 16 2 Norte 6 Este 0 -- -- 93
2020-08-28 19:00:00 16.3 0 Calma 7 Noroeste 2.1 -- -- 92
2020-08-28 18:00:00 17.2 2 Este 8 Sudeste 0.1 -- -- 86
2020-08-28 17:00:00 16.8 0 Calma 7 Este 0 -- -- 88
2020-08-28 16:00:00 16.9 0 Calma 8 Este 0.5 -- -- 89
2020-08-28 15:00:00 16.6 4 Nordeste 10 Nordeste 0 -- -- 89
2020-08-28 14:00:00 17 2 Nordeste 8 Sudeste 1.1 -- -- 92
2020-08-28 13:00:00 16.9 0 Calma 9 Nordeste 0.4 -- -- 92
2020-08-28 12:00:00 17.6 0 Calma 5 Sudeste 0 -- -- 89
2020-08-28 11:00:00 17.3 0 Calma 4 Sur 0.2 -- -- 91
2020-08-28 10:00:00 17.2 2 Oeste 10 Noroeste 0 -- -- 89
2020-08-28 09:00:00 18.1 0 Calma 10 Oeste 0.3 -- -- 91
2020-08-28 08:00:00 19 0 Calma 7 Norte 1.2 -- -- 96
2020-08-28 07:00:00 19.1 0 Calma 3 Noroeste 0.1 -- -- 94
2020-08-28 06:00:00 19.3 0 Calma 3 Noroeste 0 -- -- 93
2020-08-28 05:00:00 19.2 0 Calma 3 Noroeste 0 -- -- 93
2020-08-28 04:00:00 19 0 Calma 3 Sur 0 -- -- 93
2020-08-28 03:00:00 18.9 0 Calma 0 Calma 0 -- -- 93
2020-08-28 02:00:00 19.1 0 Calma 3 Noroeste 0 -- -- 90
2020-08-28 01:00:00 19.7 0 Calma 4 Noroeste 0 -- -- 89
2020-08-28 00:00:00 20.1 0 Calma 3 Sudoeste 0 -- -- 88